Lower Island Cove, Canada
Current Conditions -  °F | °C
As of 5:00 PM on Monday 24 Nov 2014 (Local Time) from CYYT Reporting Station
Few Clouds Few Clouds  
Wind Chill: 28°   Ceiling: Unl
Heat Index: 28°   Visibility: 15mi
Dew Point: 14°   Wind: 3mph
Humidity: 55%   Direction: 170°S
Pressure: 30.39"   Gusts: NA
Location:  48°N, 53°W
Report Text: CYYT 242000Z 17003KT 170V230 15SM FEW200 M02/M10 A3039 RMK CI2 SLP298
Loading
Personal Weather Stations






























Interactive Weather Map New forecast layout! Learn more

10-Day Weather Forecast

Advertisements
Track Severe Weather on mobile